sensor_id;sensor_type;location;lat;lon;timestamp;P1;durP1;ratioP1;P2;durP2;ratioP2
62554;SDS011;48610;52.144;8.624;2023-09-08T00:00:57;7.85;;;5.10;;
62554;SDS011;48610;52.144;8.624;2023-09-08T00:03:58;7.10;;;5.25;;
62554;SDS011;48610;52.144;8.624;2023-09-08T00:06:58;6.72;;;5.10;;
62554;SDS011;48610;52.144;8.624;2023-09-08T00:09:59;7.93;;;5.28;;
62554;SDS011;48610;52.144;8.624;2023-09-08T00:13:00;7.35;;;5.30;;
62554;SDS011;48610;52.144;8.624;2023-09-08T00:16:00;7.40;;;5.40;;
62554;SDS011;48610;52.144;8.624;2023-09-08T00:19:01;9.32;;;5.40;;
62554;SDS011;48610;52.144;8.624;2023-09-08T00:22:02;6.80;;;5.25;;
62554;SDS011;48610;52.144;8.624;2023-09-08T00:25:05;6.97;;;5.07;;
62554;SDS011;48610;52.144;8.624;2023-09-08T00:28:06;6.70;;;5.32;;
62554;SDS011;48610;52.144;8.624;2023-09-08T00:31:07;6.97;;;4.90;;
62554;SDS011;48610;52.144;8.624;2023-09-08T00:34:07;7.10;;;5.18;;
62554;SDS011;48610;52.144;8.624;2023-09-08T00:37:08;8.43;;;5.05;;
62554;SDS011;48610;52.144;8.624;2023-09-08T00:40:09;7.57;;;5.20;;
62554;SDS011;48610;52.144;8.624;2023-09-08T00:43:10;8.82;;;5.10;;
62554;SDS011;48610;52.144;8.624;2023-09-08T00:46:11;7.55;;;5.10;;
62554;SDS011;48610;52.144;8.624;2023-09-08T00:49:12;6.13;;;4.90;;
62554;SDS011;48610;52.144;8.624;2023-09-08T00:52:13;12.57;;;5.63;;
62554;SDS011;48610;52.144;8.624;2023-09-08T00:55:13;8.10;;;5.30;;
62554;SDS011;48610;52.144;8.624;2023-09-08T00:58:14;7.75;;;4.68;;
62554;SDS011;48610;52.144;8.624;2023-09-08T01:01:15;8.43;;;5.72;;
62554;SDS011;48610;52.144;8.624;2023-09-08T01:04:17;6.88;;;5.15;;
62554;SDS011;48610;52.144;8.624;2023-09-08T01:07:18;12.82;;;5.60;;
62554;SDS011;48610;52.144;8.624;2023-09-08T01:10:20;7.13;;;5.30;;
62554;SDS011;48610;52.144;8.624;2023-09-08T01:13:20;7.60;;;5.10;;
62554;SDS011;48610;52.144;8.624;2023-09-08T01:16:21;6.97;;;4.93;;
62554;SDS011;48610;52.144;8.624;2023-09-08T01:19:22;6.63;;;4.70;;
62554;SDS011;48610;52.144;8.624;2023-09-08T01:25:32;7.28;;;4.72;;
62554;SDS011;48610;52.144;8.624;2023-09-08T01:28:39;6.25;;;4.70;;
62554;SDS011;48610;52.144;8.624;2023-09-08T01:31:41;9.63;;;4.95;;
62554;SDS011;48610;52.144;8.624;2023-09-08T01:34:42;8.27;;;4.90;;
62554;SDS011;48610;52.144;8.624;2023-09-08T01:37:46;7.60;;;5.20;;
62554;SDS011;48610;52.144;8.624;2023-09-08T01:40:47;7.80;;;4.97;;
62554;SDS011;48610;52.144;8.624;2023-09-08T01:43:48;8.05;;;5.45;;
62554;SDS011;48610;52.144;8.624;2023-09-08T01:46:49;11.50;;;4.85;;
62554;SDS011;48610;52.144;8.624;2023-09-08T01:49:51;7.25;;;5.07;;
62554;SDS011;48610;52.144;8.624;2023-09-08T01:52:51;6.60;;;4.93;;
62554;SDS011;48610;52.144;8.624;2023-09-08T01:55:52;6.82;;;5.13;;
62554;SDS011;48610;52.144;8.624;2023-09-08T01:58:52;8.50;;;5.35;;
62554;SDS011;48610;52.144;8.624;2023-09-08T02:01:53;11.45;;;5.80;;
62554;SDS011;48610;52.144;8.624;2023-09-08T02:04:54;7.13;;;4.60;;
62554;SDS011;48610;52.144;8.624;2023-09-08T02:07:54;7.32;;;5.47;;
62554;SDS011;48610;52.144;8.624;2023-09-08T02:10:56;10.45;;;5.35;;
62554;SDS011;48610;52.144;8.624;2023-09-08T02:13:57;11.70;;;5.35;;
62554;SDS011;48610;52.144;8.624;2023-09-08T02:16:57;7.53;;;5.00;;
62554;SDS011;48610;52.144;8.624;2023-09-08T02:19:58;12.63;;;4.97;;
62554;SDS011;48610;52.144;8.624;2023-09-08T02:23:04;11.57;;;5.65;;
62554;SDS011;48610;52.144;8.624;2023-09-08T02:26:05;7.30;;;4.97;;
62554;SDS011;48610;52.144;8.624;2023-09-08T02:29:06;12.48;;;5.38;;
62554;SDS011;48610;52.144;8.624;2023-09-08T02:32:07;10.15;;;5.25;;
62554;SDS011;48610;52.144;8.624;2023-09-08T02:35:07;9.10;;;5.47;;
62554;SDS011;48610;52.144;8.624;2023-09-08T02:38:08;6.70;;;5.15;;
62554;SDS011;48610;52.144;8.624;2023-09-08T02:41:09;7.18;;;5.07;;
62554;SDS011;48610;52.144;8.624;2023-09-08T02:44:09;6.15;;;4.80;;
62554;SDS011;48610;52.144;8.624;2023-09-08T02:47:10;8.05;;;5.22;;
62554;SDS011;48610;52.144;8.624;2023-09-08T02:50:10;7.20;;;5.18;;
62554;SDS011;48610;52.144;8.624;2023-09-08T02:53:12;8.27;;;5.25;;
62554;SDS011;48610;52.144;8.624;2023-09-08T02:56:12;8.27;;;5.53;;
62554;SDS011;48610;52.144;8.624;2023-09-08T02:59:13;6.18;;;4.65;;
62554;SDS011;48610;52.144;8.624;2023-09-08T03:02:14;5.68;;;4.40;;
62554;SDS011;48610;52.144;8.624;2023-09-08T03:05:14;6.82;;;4.78;;
62554;SDS011;48610;52.144;8.624;2023-09-08T03:08:15;10.57;;;4.80;;
62554;SDS011;48610;52.144;8.624;2023-09-08T03:11:15;7.45;;;5.43;;
62554;SDS011;48610;52.144;8.624;2023-09-08T03:14:16;7.90;;;4.90;;
62554;SDS011;48610;52.144;8.624;2023-09-08T03:17:16;7.82;;;5.65;;
62554;SDS011;48610;52.144;8.624;2023-09-08T03:20:18;8.63;;;5.47;;
62554;SDS011;48610;52.144;8.624;2023-09-08T03:23:18;12.35;;;5.30;;
62554;SDS011;48610;52.144;8.624;2023-09-08T03:26:19;8.20;;;5.80;;
62554;SDS011;48610;52.144;8.624;2023-09-08T03:29:19;8.07;;;5.43;;
62554;SDS011;48610;52.144;8.624;2023-09-08T03:32:20;9.23;;;5.60;;
62554;SDS011;48610;52.144;8.624;2023-09-08T03:35:21;11.18;;;5.95;;
62554;SDS011;48610;52.144;8.624;2023-09-08T03:38:21;8.27;;;5.53;;
62554;SDS011;48610;52.144;8.624;2023-09-08T03:41:22;9.27;;;5.72;;
62554;SDS011;48610;52.144;8.624;2023-09-08T03:44:23;11.05;;;6.00;;
62554;SDS011;48610;52.144;8.624;2023-09-08T03:47:23;8.65;;;6.00;;
62554;SDS011;48610;52.144;8.624;2023-09-08T03:50:24;11.02;;;5.80;;
62554;SDS011;48610;52.144;8.624;2023-09-08T03:53:25;7.68;;;5.55;;
62554;SDS011;48610;52.144;8.624;2023-09-08T03:56:26;7.53;;;5.20;;
62554;SDS011;48610;52.144;8.624;2023-09-08T03:59:26;7.07;;;5.03;;
62554;SDS011;48610;52.144;8.624;2023-09-08T04:02:27;7.53;;;5.00;;
62554;SDS011;48610;52.144;8.624;2023-09-08T04:05:27;6.18;;;5.07;;
62554;SDS011;48610;52.144;8.624;2023-09-08T04:08:28;12.15;;;6.03;;
62554;SDS011;48610;52.144;8.624;2023-09-08T04:11:28;12.40;;;6.40;;
62554;SDS011;48610;52.144;8.624;2023-09-08T04:14:29;7.70;;;5.45;;
62554;SDS011;48610;52.144;8.624;2023-09-08T04:17:30;9.88;;;5.90;;
62554;SDS011;48610;52.144;8.624;2023-09-08T04:20:31;14.98;;;5.82;;
62554;SDS011;48610;52.144;8.624;2023-09-08T04:23:31;8.32;;;5.22;;
62554;SDS011;48610;52.144;8.624;2023-09-08T04:26:32;16.15;;;5.50;;
62554;SDS011;48610;52.144;8.624;2023-09-08T04:29:32;9.38;;;5.32;;
62554;SDS011;48610;52.144;8.624;2023-09-08T04:32:33;10.20;;;4.93;;
62554;SDS011;48610;52.144;8.624;2023-09-08T04:35:33;11.05;;;5.07;;
62554;SDS011;48610;52.144;8.624;2023-09-08T04:38:34;9.35;;;5.30;;
62554;SDS011;48610;52.144;8.624;2023-09-08T04:41:35;7.95;;;5.82;;
62554;SDS011;48610;52.144;8.624;2023-09-08T04:44:35;13.43;;;5.93;;
62554;SDS011;48610;52.144;8.624;2023-09-08T04:47:36;8.70;;;6.05;;
62554;SDS011;48610;52.144;8.624;2023-09-08T04:50:37;11.18;;;5.28;;
62554;SDS011;48610;52.144;8.624;2023-09-08T04:53:38;12.43;;;5.95;;
62554;SDS011;48610;52.144;8.624;2023-09-08T04:56:38;12.52;;;5.47;;
62554;SDS011;48610;52.144;8.624;2023-09-08T04:59:40;9.27;;;5.50;;
62554;SDS011;48610;52.144;8.624;2023-09-08T05:02:40;8.65;;;5.70;;
62554;SDS011;48610;52.144;8.624;2023-09-08T05:05:41;7.80;;;5.20;;
62554;SDS011;48610;52.144;8.624;2023-09-08T05:08:42;8.27;;;5.13;;
62554;SDS011;48610;52.144;8.624;2023-09-08T05:11:44;8.20;;;5.00;;
62554;SDS011;48610;52.144;8.624;2023-09-08T05:14:44;11.82;;;5.38;;
62554;SDS011;48610;52.144;8.624;2023-09-08T05:17:45;14.27;;;5.63;;
62554;SDS011;48610;52.144;8.624;2023-09-08T05:20:47;13.55;;;5.80;;
62554;SDS011;48610;52.144;8.624;2023-09-08T05:23:47;10.43;;;5.75;;
62554;SDS011;48610;52.144;8.624;2023-09-08T05:26:48;11.45;;;5.28;;
62554;SDS011;48610;52.144;8.624;2023-09-08T05:29:49;9.10;;;5.40;;
62554;SDS011;48610;52.144;8.624;2023-09-08T05:32:49;9.00;;;5.22;;
62554;SDS011;48610;52.144;8.624;2023-09-08T05:35:50;9.68;;;5.57;;
62554;SDS011;48610;52.144;8.624;2023-09-08T05:38:50;9.57;;;5.38;;
62554;SDS011;48610;52.144;8.624;2023-09-08T05:41:51;11.07;;;5.35;;
62554;SDS011;48610;52.144;8.624;2023-09-08T05:44:51;10.57;;;5.03;;
62554;SDS011;48610;52.144;8.624;2023-09-08T05:47:54;7.45;;;5.00;;
62554;SDS011;48610;52.144;8.624;2023-09-08T05:50:55;11.63;;;5.38;;
62554;SDS011;48610;52.144;8.624;2023-09-08T05:53:55;18.27;;;6.10;;
62554;SDS011;48610;52.144;8.624;2023-09-08T05:56:56;12.52;;;5.30;;
62554;SDS011;48610;52.144;8.624;2023-09-08T05:59:57;12.38;;;5.53;;
62554;SDS011;48610;52.144;8.624;2023-09-08T06:02:57;9.00;;;5.70;;
62554;SDS011;48610;52.144;8.624;2023-09-08T06:05:58;11.50;;;5.47;;
62554;SDS011;48610;52.144;8.624;2023-09-08T06:08:58;13.02;;;5.57;;
62554;SDS011;48610;52.144;8.624;2023-09-08T06:11:59;18.42;;;5.43;;
62554;SDS011;48610;52.144;8.624;2023-09-08T06:15:00;27.38;;;6.65;;
62554;SDS011;48610;52.144;8.624;2023-09-08T06:18:04;16.58;;;5.68;;
62554;SDS011;48610;52.144;8.624;2023-09-08T06:21:06;10.38;;;5.13;;
62554;SDS011;48610;52.144;8.624;2023-09-08T06:24:07;11.90;;;6.60;;
62554;SDS011;48610;52.144;8.624;2023-09-08T06:27:08;9.65;;;5.13;;
62554;SDS011;48610;52.144;8.624;2023-09-08T06:30:09;8.98;;;4.97;;
62554;SDS011;48610;52.144;8.624;2023-09-08T06:33:10;12.02;;;5.18;;
62554;SDS011;48610;52.144;8.624;2023-09-08T06:36:11;10.23;;;5.32;;
62554;SDS011;48610;52.144;8.624;2023-09-08T06:39:11;7.53;;;5.35;;
62554;SDS011;48610;52.144;8.624;2023-09-08T06:42:12;8.98;;;5.15;;
62554;SDS011;48610;52.144;8.624;2023-09-08T06:45:13;13.27;;;5.35;;
62554;SDS011;48610;52.144;8.624;2023-09-08T06:48:15;13.00;;;5.28;;
62554;SDS011;48610;52.144;8.624;2023-09-08T06:51:16;12.35;;;5.55;;
62554;SDS011;48610;52.144;8.624;2023-09-08T06:54:16;8.30;;;5.53;;
62554;SDS011;48610;52.144;8.624;2023-09-08T06:57:18;13.48;;;5.35;;
62554;SDS011;48610;52.144;8.624;2023-09-08T07:00:21;11.25;;;5.22;;
62554;SDS011;48610;52.144;8.624;2023-09-08T07:03:22;13.35;;;5.20;;
62554;SDS011;48610;52.144;8.624;2023-09-08T07:06:22;10.35;;;4.80;;
62554;SDS011;48610;52.144;8.624;2023-09-08T07:09:23;9.20;;;5.47;;
62554;SDS011;48610;52.144;8.624;2023-09-08T07:12:24;14.68;;;5.43;;
62554;SDS011;48610;52.144;8.624;2023-09-08T07:15:25;12.55;;;5.00;;
62554;SDS011;48610;52.144;8.624;2023-09-08T07:18:25;16.08;;;5.10;;
62554;SDS011;48610;52.144;8.624;2023-09-08T07:21:26;7.95;;;4.93;;
62554;SDS011;48610;52.144;8.624;2023-09-08T07:24:27;7.75;;;4.85;;
62554;SDS011;48610;52.144;8.624;2023-09-08T07:27:27;10.80;;;4.70;;
62554;SDS011;48610;52.144;8.624;2023-09-08T07:30:28;7.45;;;4.85;;
62554;SDS011;48610;52.144;8.624;2023-09-08T07:33:29;7.13;;;4.57;;
62554;SDS011;48610;52.144;8.624;2023-09-08T07:36:29;9.75;;;4.32;;
62554;SDS011;48610;52.144;8.624;2023-09-08T07:39:30;8.32;;;4.85;;
62554;SDS011;48610;52.144;8.624;2023-09-08T07:42:31;11.75;;;4.93;;
62554;SDS011;48610;52.144;8.624;2023-09-08T07:45:32;17.80;;;4.13;;
62554;SDS011;48610;52.144;8.624;2023-09-08T07:48:33;8.27;;;5.00;;
62554;SDS011;48610;52.144;8.624;2023-09-08T07:51:34;6.00;;;4.50;;
62554;SDS011;48610;52.144;8.624;2023-09-08T07:54:34;12.25;;;4.50;;
62554;SDS011;48610;52.144;8.624;2023-09-08T07:57:35;6.97;;;4.50;;
62554;SDS011;48610;52.144;8.624;2023-09-08T08:00:36;8.18;;;4.60;;
62554;SDS011;48610;52.144;8.624;2023-09-08T08:03:36;8.23;;;4.32;;
62554;SDS011;48610;52.144;8.624;2023-09-08T08:06:37;9.75;;;4.60;;
62554;SDS011;48610;52.144;8.624;2023-09-08T08:09:38;6.63;;;4.50;;
62554;SDS011;48610;52.144;8.624;2023-09-08T08:12:39;8.55;;;4.38;;
62554;SDS011;48610;52.144;8.624;2023-09-08T08:15:41;9.13;;;5.00;;
62554;SDS011;48610;52.144;8.624;2023-09-08T08:18:42;18.50;;;4.88;;
62554;SDS011;48610;52.144;8.624;2023-09-08T08:21:43;8.50;;;4.80;;
62554;SDS011;48610;52.144;8.624;2023-09-08T08:24:44;7.47;;;4.65;;
62554;SDS011;48610;52.144;8.624;2023-09-08T08:27:44;10.48;;;4.20;;
62554;SDS011;48610;52.144;8.624;2023-09-08T08:30:45;7.22;;;4.97;;
62554;SDS011;48610;52.144;8.624;2023-09-08T08:33:47;6.65;;;3.97;;
62554;SDS011;48610;52.144;8.624;2023-09-08T08:36:47;8.23;;;4.53;;
62554;SDS011;48610;52.144;8.624;2023-09-08T08:39:48;7.90;;;4.10;;
62554;SDS011;48610;52.144;8.624;2023-09-08T08:42:49;10.13;;;4.55;;
62554;SDS011;48610;52.144;8.624;2023-09-08T08:45:55;7.15;;;4.03;;
62554;SDS011;48610;52.144;8.624;2023-09-08T08:48:58;15.82;;;4.40;;
62554;SDS011;48610;52.144;8.624;2023-09-08T08:52:01;7.78;;;4.50;;
62554;SDS011;48610;52.144;8.624;2023-09-08T08:55:07;8.30;;;4.75;;
62554;SDS011;48610;52.144;8.624;2023-09-08T08:58:08;9.43;;;4.40;;
62554;SDS011;48610;52.144;8.624;2023-09-08T09:01:10;7.13;;;4.35;;
62554;SDS011;48610;52.144;8.624;2023-09-08T09:04:12;9.15;;;4.45;;
62554;SDS011;48610;52.144;8.624;2023-09-08T09:07:13;7.95;;;4.50;;
62554;SDS011;48610;52.144;8.624;2023-09-08T09:10:14;12.50;;;5.28;;
62554;SDS011;48610;52.144;8.624;2023-09-08T09:13:14;6.85;;;4.13;;
62554;SDS011;48610;52.144;8.624;2023-09-08T09:16:15;6.43;;;4.53;;
62554;SDS011;48610;52.144;8.624;2023-09-08T09:19:20;6.75;;;4.63;;
62554;SDS011;48610;52.144;8.624;2023-09-08T09:22:27;6.90;;;4.90;;
62554;SDS011;48610;52.144;8.624;2023-09-08T09:25:36;8.82;;;4.30;;
62554;SDS011;48610;52.144;8.624;2023-09-08T09:28:46;7.97;;;4.93;;
62554;SDS011;48610;52.144;8.624;2023-09-08T09:31:55;6.25;;;4.35;;
62554;SDS011;48610;52.144;8.624;2023-09-08T09:34:57;8.80;;;4.53;;
62554;SDS011;48610;52.144;8.624;2023-09-08T09:38:01;9.63;;;4.65;;
62554;SDS011;48610;52.144;8.624;2023-09-08T09:41:03;8.90;;;4.88;;
62554;SDS011;48610;52.144;8.624;2023-09-08T09:44:03;8.93;;;4.70;;
62554;SDS011;48610;52.144;8.624;2023-09-08T09:47:05;10.30;;;4.63;;
62554;SDS011;48610;52.144;8.624;2023-09-08T09:50:07;16.70;;;4.55;;
62554;SDS011;48610;52.144;8.624;2023-09-08T09:53:14;7.45;;;4.60;;
62554;SDS011;48610;52.144;8.624;2023-09-08T09:56:18;8.48;;;4.43;;
62554;SDS011;48610;52.144;8.624;2023-09-08T09:59:22;12.25;;;4.57;;
62554;SDS011;48610;52.144;8.624;2023-09-08T10:02:23;8.15;;;4.95;;
62554;SDS011;48610;52.144;8.624;2023-09-08T10:05:25;7.15;;;4.40;;
62554;SDS011;48610;52.144;8.624;2023-09-08T10:08:26;6.20;;;4.40;;
62554;SDS011;48610;52.144;8.624;2023-09-08T10:11:29;6.75;;;4.57;;
62554;SDS011;48610;52.144;8.624;2023-09-08T10:14:36;16.92;;;4.93;;
62554;SDS011;48610;52.144;8.624;2023-09-08T10:17:41;9.02;;;4.70;;
62554;SDS011;48610;52.144;8.624;2023-09-08T10:20:44;10.00;;;4.43;;
62554;SDS011;48610;52.144;8.624;2023-09-08T10:24:04;10.75;;;4.90;;
62554;SDS011;48610;52.144;8.624;2023-09-08T10:27:22;14.77;;;4.73;;
62554;SDS011;48610;52.144;8.624;2023-09-08T10:30:23;9.68;;;4.70;;
62554;SDS011;48610;52.144;8.624;2023-09-08T10:33:24;8.52;;;5.00;;
62554;SDS011;48610;52.144;8.624;2023-09-08T10:36:26;7.15;;;4.50;;
62554;SDS011;48610;52.144;8.624;2023-09-08T10:39:30;11.07;;;4.80;;
62554;SDS011;48610;52.144;8.624;2023-09-08T10:42:40;14.95;;;4.70;;
62554;SDS011;48610;52.144;8.624;2023-09-08T10:45:40;12.05;;;4.82;;
62554;SDS011;48610;52.144;8.624;2023-09-08T10:48:41;8.73;;;4.90;;
62554;SDS011;48610;52.144;8.624;2023-09-08T10:51:43;7.53;;;4.90;;
62554;SDS011;48610;52.144;8.624;2023-09-08T10:54:47;9.48;;;4.55;;
62554;SDS011;48610;52.144;8.624;2023-09-08T10:57:49;30.00;;;5.05;;
62554;SDS011;48610;52.144;8.624;2023-09-08T11:00:54;11.07;;;4.75;;
62554;SDS011;48610;52.144;8.624;2023-09-08T11:04:01;9.63;;;4.47;;
62554;SDS011;48610;52.144;8.624;2023-09-08T11:07:08;6.30;;;4.60;;
62554;SDS011;48610;52.144;8.624;2023-09-08T11:10:10;5.10;;;4.15;;
62554;SDS011;48610;52.144;8.624;2023-09-08T11:13:12;8.52;;;4.53;;
62554;SDS011;48610;52.144;8.624;2023-09-08T11:16:13;7.43;;;4.60;;
62554;SDS011;48610;52.144;8.624;2023-09-08T11:19:21;7.32;;;4.50;;
62554;SDS011;48610;52.144;8.624;2023-09-08T11:22:23;10.43;;;4.82;;
62554;SDS011;48610;52.144;8.624;2023-09-08T11:25:24;9.38;;;4.30;;
62554;SDS011;48610;52.144;8.624;2023-09-08T11:28:25;8.88;;;4.43;;
62554;SDS011;48610;52.144;8.624;2023-09-08T11:31:27;10.45;;;4.80;;
62554;SDS011;48610;52.144;8.624;2023-09-08T11:34:27;16.67;;;4.63;;
62554;SDS011;48610;52.144;8.624;2023-09-08T11:37:29;8.27;;;4.57;;
62554;SDS011;48610;52.144;8.624;2023-09-08T11:40:29;7.95;;;4.35;;
62554;SDS011;48610;52.144;8.624;2023-09-08T11:43:30;11.80;;;4.38;;
62554;SDS011;48610;52.144;8.624;2023-09-08T11:46:33;7.20;;;4.45;;
62554;SDS011;48610;52.144;8.624;2023-09-08T11:49:36;10.70;;;4.55;;
62554;SDS011;48610;52.144;8.624;2023-09-08T11:52:38;6.63;;;4.38;;
62554;SDS011;48610;52.144;8.624;2023-09-08T11:55:40;7.30;;;4.57;;
62554;SDS011;48610;52.144;8.624;2023-09-08T11:58:41;8.07;;;4.40;;
62554;SDS011;48610;52.144;8.624;2023-09-08T12:01:42;6.43;;;4.60;;
62554;SDS011;48610;52.144;8.624;2023-09-08T12:04:44;11.75;;;4.65;;
62554;SDS011;48610;52.144;8.624;2023-09-08T12:07:45;5.90;;;4.20;;
62554;SDS011;48610;52.144;8.624;2023-09-08T12:10:46;7.15;;;4.45;;
62554;SDS011;48610;52.144;8.624;2023-09-08T12:13:46;8.73;;;4.55;;
62554;SDS011;48610;52.144;8.624;2023-09-08T12:16:47;6.50;;;4.43;;
62554;SDS011;48610;52.144;8.624;2023-09-08T12:19:48;5.85;;;4.30;;
62554;SDS011;48610;52.144;8.624;2023-09-08T12:22:49;6.63;;;4.35;;
62554;SDS011;48610;52.144;8.624;2023-09-08T12:25:51;10.50;;;4.72;;
62554;SDS011;48610;52.144;8.624;2023-09-08T12:28:52;8.85;;;4.32;;
62554;SDS011;48610;52.144;8.624;2023-09-08T12:31:53;8.77;;;4.15;;
62554;SDS011;48610;52.144;8.624;2023-09-08T12:34:54;11.90;;;4.45;;
62554;SDS011;48610;52.144;8.624;2023-09-08T12:38:01;9.15;;;4.47;;
62554;SDS011;48610;52.144;8.624;2023-09-08T12:41:05;7.95;;;4.50;;
62554;SDS011;48610;52.144;8.624;2023-09-08T12:44:05;6.25;;;4.25;;
62554;SDS011;48610;52.144;8.624;2023-09-08T12:47:06;12.55;;;4.95;;
62554;SDS011;48610;52.144;8.624;2023-09-08T12:50:09;12.63;;;4.55;;
62554;SDS011;48610;52.144;8.624;2023-09-08T12:53:10;8.25;;;4.20;;
62554;SDS011;48610;52.144;8.624;2023-09-08T12:56:10;17.35;;;4.75;;
62554;SDS011;48610;52.144;8.624;2023-09-08T12:59:11;6.65;;;4.90;;
62554;SDS011;48610;52.144;8.624;2023-09-08T13:02:11;11.02;;;4.63;;
62554;SDS011;48610;52.144;8.624;2023-09-08T13:05:12;6.05;;;3.95;;
62554;SDS011;48610;52.144;8.624;2023-09-08T13:08:13;7.38;;;4.55;;
62554;SDS011;48610;52.144;8.624;2023-09-08T13:11:15;9.45;;;4.05;;
62554;SDS011;48610;52.144;8.624;2023-09-08T13:14:16;6.53;;;4.05;;
62554;SDS011;48610;52.144;8.624;2023-09-08T13:17:16;7.50;;;4.32;;
62554;SDS011;48610;52.144;8.624;2023-09-08T13:20:17;6.75;;;4.55;;
62554;SDS011;48610;52.144;8.624;2023-09-08T13:23:17;10.45;;;4.03;;
62554;SDS011;48610;52.144;8.624;2023-09-08T13:26:18;15.80;;;4.70;;
62554;SDS011;48610;52.144;8.624;2023-09-08T13:29:19;7.30;;;4.50;;
62554;SDS011;48610;52.144;8.624;2023-09-08T13:32:19;7.82;;;4.50;;
62554;SDS011;48610;52.144;8.624;2023-09-08T13:35:20;6.47;;;4.70;;
62554;SDS011;48610;52.144;8.624;2023-09-08T13:38:21;18.63;;;4.85;;
62554;SDS011;48610;52.144;8.624;2023-09-08T13:41:22;6.28;;;4.25;;
62554;SDS011;48610;52.144;8.624;2023-09-08T13:44:23;7.35;;;4.55;;
62554;SDS011;48610;52.144;8.624;2023-09-08T13:47:24;8.43;;;4.35;;
62554;SDS011;48610;52.144;8.624;2023-09-08T13:50:25;6.97;;;4.22;;
62554;SDS011;48610;52.144;8.624;2023-09-08T13:53:25;8.88;;;4.50;;
62554;SDS011;48610;52.144;8.624;2023-09-08T13:56:26;6.40;;;4.50;;
62554;SDS011;48610;52.144;8.624;2023-09-08T13:59:27;5.70;;;4.40;;
62554;SDS011;48610;52.144;8.624;2023-09-08T14:02:31;9.82;;;4.57;;
62554;SDS011;48610;52.144;8.624;2023-09-08T14:05:32;6.72;;;4.20;;
62554;SDS011;48610;52.144;8.624;2023-09-08T14:08:32;8.98;;;4.50;;
62554;SDS011;48610;52.144;8.624;2023-09-08T14:11:33;8.88;;;4.22;;
62554;SDS011;48610;52.144;8.624;2023-09-08T14:14:33;10.23;;;4.25;;
62554;SDS011;48610;52.144;8.624;2023-09-08T14:17:34;6.13;;;4.55;;
62554;SDS011;48610;52.144;8.624;2023-09-08T14:20:35;9.40;;;4.57;;
62554;SDS011;48610;52.144;8.624;2023-09-08T14:23:35;12.02;;;4.40;;
62554;SDS011;48610;52.144;8.624;2023-09-08T14:26:38;8.90;;;4.25;;
62554;SDS011;48610;52.144;8.624;2023-09-08T14:29:38;7.10;;;4.53;;
62554;SDS011;48610;52.144;8.624;2023-09-08T14:32:39;8.15;;;4.50;;
62554;SDS011;48610;52.144;8.624;2023-09-08T14:35:43;9.63;;;4.57;;
62554;SDS011;48610;52.144;8.624;2023-09-08T14:38:44;7.03;;;4.13;;
62554;SDS011;48610;52.144;8.624;2023-09-08T14:41:45;5.95;;;4.25;;
62554;SDS011;48610;52.144;8.624;2023-09-08T14:44:45;6.07;;;4.07;;
62554;SDS011;48610;52.144;8.624;2023-09-08T14:47:46;7.18;;;4.32;;
62554;SDS011;48610;52.144;8.624;2023-09-08T14:50:47;7.85;;;4.20;;
62554;SDS011;48610;52.144;8.624;2023-09-08T14:53:47;10.52;;;4.32;;
62554;SDS011;48610;52.144;8.624;2023-09-08T14:56:48;7.05;;;4.05;;
62554;SDS011;48610;52.144;8.624;2023-09-08T14:59:48;9.25;;;4.68;;
62554;SDS011;48610;52.144;8.624;2023-09-08T15:02:49;6.53;;;4.30;;
62554;SDS011;48610;52.144;8.624;2023-09-08T15:05:50;9.50;;;4.40;;
62554;SDS011;48610;52.144;8.624;2023-09-08T15:08:51;5.70;;;4.07;;
62554;SDS011;48610;52.144;8.624;2023-09-08T15:11:51;7.72;;;3.90;;
62554;SDS011;48610;52.144;8.624;2023-09-08T15:14:52;8.88;;;4.18;;
62554;SDS011;48610;52.144;8.624;2023-09-08T15:17:53;7.75;;;4.50;;
62554;SDS011;48610;52.144;8.624;2023-09-08T15:20:54;5.93;;;4.53;;
62554;SDS011;48610;52.144;8.624;2023-09-08T15:23:55;6.90;;;4.22;;
62554;SDS011;48610;52.144;8.624;2023-09-08T15:26:56;7.70;;;4.30;;
62554;SDS011;48610;52.144;8.624;2023-09-08T15:30:00;6.03;;;4.30;;
62554;SDS011;48610;52.144;8.624;2023-09-08T15:33:04;7.25;;;5.32;;
62554;SDS011;48610;52.144;8.624;2023-09-08T15:36:06;8.45;;;4.35;;
62554;SDS011;48610;52.144;8.624;2023-09-08T15:39:07;8.57;;;4.53;;
62554;SDS011;48610;52.144;8.624;2023-09-08T15:42:07;14.50;;;6.00;;
62554;SDS011;48610;52.144;8.624;2023-09-08T15:45:08;15.05;;;4.70;;
62554;SDS011;48610;52.144;8.624;2023-09-08T15:48:09;9.85;;;4.40;;
62554;SDS011;48610;52.144;8.624;2023-09-08T15:51:10;20.75;;;5.00;;
62554;SDS011;48610;52.144;8.624;2023-09-08T15:54:11;8.07;;;4.35;;
62554;SDS011;48610;52.144;8.624;2023-09-08T15:57:12;15.93;;;5.70;;
62554;SDS011;48610;52.144;8.624;2023-09-08T16:00:13;17.75;;;5.15;;
62554;SDS011;48610;52.144;8.624;2023-09-08T16:03:14;15.82;;;4.85;;
62554;SDS011;48610;52.144;8.624;2023-09-08T16:06:14;14.15;;;5.00;;
62554;SDS011;48610;52.144;8.624;2023-09-08T16:09:17;8.52;;;4.38;;
62554;SDS011;48610;52.144;8.624;2023-09-08T16:12:18;13.80;;;4.40;;
62554;SDS011;48610;52.144;8.624;2023-09-08T16:15:19;6.32;;;4.47;;
62554;SDS011;48610;52.144;8.624;2023-09-08T16:18:20;6.70;;;4.40;;
62554;SDS011;48610;52.144;8.624;2023-09-08T16:21:20;9.15;;;4.32;;
62554;SDS011;48610;52.144;8.624;2023-09-08T16:24:21;8.80;;;4.57;;
62554;SDS011;48610;52.144;8.624;2023-09-08T16:27:22;8.30;;;4.40;;
62554;SDS011;48610;52.144;8.624;2023-09-08T16:30:22;9.60;;;4.70;;
62554;SDS011;48610;52.144;8.624;2023-09-08T16:33:23;7.30;;;4.40;;
62554;SDS011;48610;52.144;8.624;2023-09-08T16:36:23;8.70;;;4.57;;
62554;SDS011;48610;52.144;8.624;2023-09-08T16:39:24;8.07;;;4.30;;
62554;SDS011;48610;52.144;8.624;2023-09-08T16:42:24;6.35;;;4.43;;
62554;SDS011;48610;52.144;8.624;2023-09-08T16:45:25;7.47;;;4.70;;
62554;SDS011;48610;52.144;8.624;2023-09-08T16:48:26;6.40;;;4.63;;
62554;SDS011;48610;52.144;8.624;2023-09-08T16:51:26;7.75;;;4.65;;
62554;SDS011;48610;52.144;8.624;2023-09-08T16:54:27;6.97;;;4.43;;
62554;SDS011;48610;52.144;8.624;2023-09-08T16:57:27;7.22;;;5.13;;
62554;SDS011;48610;52.144;8.624;2023-09-08T17:00:28;7.72;;;4.97;;
62554;SDS011;48610;52.144;8.624;2023-09-08T17:03:29;6.65;;;4.70;;
62554;SDS011;48610;52.144;8.624;2023-09-08T17:06:29;8.82;;;4.78;;
62554;SDS011;48610;52.144;8.624;2023-09-08T17:09:30;6.82;;;4.47;;
62554;SDS011;48610;52.144;8.624;2023-09-08T17:12:31;10.45;;;4.78;;
62554;SDS011;48610;52.144;8.624;2023-09-08T17:15:31;14.68;;;5.70;;
62554;SDS011;48610;52.144;8.624;2023-09-08T17:18:32;15.27;;;4.90;;
62554;SDS011;48610;52.144;8.624;2023-09-08T17:21:33;19.70;;;4.47;;
62554;SDS011;48610;52.144;8.624;2023-09-08T17:24:33;22.45;;;5.45;;
62554;SDS011;48610;52.144;8.624;2023-09-08T17:27:34;20.50;;;5.53;;
62554;SDS011;48610;52.144;8.624;2023-09-08T17:30:34;11.40;;;5.38;;
62554;SDS011;48610;52.144;8.624;2023-09-08T17:33:35;17.15;;;5.30;;
62554;SDS011;48610;52.144;8.624;2023-09-08T17:36:35;13.15;;;5.05;;
62554;SDS011;48610;52.144;8.624;2023-09-08T17:39:36;14.82;;;5.05;;
62554;SDS011;48610;52.144;8.624;2023-09-08T17:42:37;9.55;;;5.50;;
62554;SDS011;48610;52.144;8.624;2023-09-08T17:45:37;10.95;;;5.32;;
62554;SDS011;48610;52.144;8.624;2023-09-08T17:48:39;12.98;;;5.60;;
62554;SDS011;48610;52.144;8.624;2023-09-08T17:51:40;14.27;;;5.47;;
62554;SDS011;48610;52.144;8.624;2023-09-08T17:54:40;6.22;;;4.35;;
62554;SDS011;48610;52.144;8.624;2023-09-08T17:57:41;17.77;;;5.40;;
62554;SDS011;48610;52.144;8.624;2023-09-08T18:00:42;16.60;;;5.13;;
62554;SDS011;48610;52.144;8.624;2023-09-08T18:03:45;16.00;;;5.20;;
62554;SDS011;48610;52.144;8.624;2023-09-08T18:06:49;14.80;;;5.72;;
62554;SDS011;48610;52.144;8.624;2023-09-08T18:09:50;12.43;;;5.20;;